Details From CYEK - Arviat
To CYZS - Coral Harbour
Flight Number -
Tags Generated
Created
Modified
Stats Distance 349 nm / 646 km
Max Altitude 0 ft / 0 m
Waypoints 2
Social Downloads 1
Likes 0
Share VATSIM

Download

Looking for another format? Having issues loading an existing format? Contact us
Advertisement - Login to hide

Notes

Generated

Route

CYEK CYZS

ID Type Via Altitude Latitude Longitude Leg Dist Tot Dist Heading (true) Name
O CYEK APT - 0 ft / 0 m 61.09886˚ -94.07665˚ - 0 nm - -
O CYZS APT - 0 ft / 0 m 64.19953˚ -83.36607˚ 348 nm 348 nm 53° / 63° -

Altitude Profile

Advertisement - Login to hide

Weather


0- 5 10 15 20 25 30 35+ Temperature / ° C

Clouds and Precipitation
Forecast for 2018-05-22 06:00 UTC. Updated 3 hours ago

Ground ~20,000 ft ~40,000 ft Winds

CYEK

Details ICAO CYEK (YEK)
Name ARVIAT
Region Canada
Timezone America/Rankin_Inlet (UTC-5.0)
Stats Elevation 32 ft / 10 m (AMSL)
Location 61.094167° -94.070834°
Runways 1
Magnetic Variation 3.172° W

METAR

CYEK 220800Z AUTO 31004KT 9SM OVC019 M08/M09 A3024 RMK SLP242

Decode

TAF

TAF CYEK 220538Z 2206/2218 35006KT P6SM -SN BKN015 TEMPO 2206/2218 P6SM NSW BKN025 RMK FCST BASED ON AUTO OBS. NXT FCST BY 221200Z

Decode

Departure Runways

ID Width Length Bearing (true) Bearing (mag) Surface Threshold Offset Overrun Length
15T 100 ft / 30 m 3,991 ft / 1,216 m 149.03° 152.20° Gravel 0 ft / 0 m 0 ft / 0 m
33T 100 ft / 30 m 3,991 ft / 1,216 m 329.05° 332.22° Gravel 0 ft / 0 m 0 ft / 0 m

CYZS

Details ICAO CYZS
Name CORAL HARBOUR
Region Canada
Timezone America/Coral_Harbour (UTC-5.0)
Stats Elevation 210 ft / 64 m (AMSL)
Location 64.193333° -83.359446°
Runways 1
Magnetic Variation 18.720° W

METAR

CYZS 220800Z 30006G16KT 260V330 15SM -SN OVC022 M08/M10 A3006 RMK SC8 SLP188

Decode

TAF

TAF CYZS 220638Z 2207/2219 36006KT P6SM -SN OVC030 TEMPO 2207/2219 OVC020 BECMG 2210/2212 32012KT RMK NXT FCST BY 221300Z

Decode

Destination Runways

ID Width Length Bearing (true) Bearing (mag) Surface Threshold Offset Overrun Length
16T 100 ft / 30 m 4,987 ft / 1,520 m 155.02° 173.74° Gravel 0 ft / 0 m 0 ft / 0 m
34T 100 ft / 30 m 4,987 ft / 1,520 m 335.03° 353.75° Gravel 0 ft / 0 m 0 ft / 0 m